Briefing drone pour Nevers (LFQG)

Rechercher une autre localisation

Conditions de vol :


Nous sommes le : Lundi 28 septembre 2020
Il est 02:50 UTC (04:50 LT)

Lever de soleil : 05:16 UTC (07:16 LT)
Coucher de soleil : 17:59 UTC (19:59 LT)

Météo

L'essentiel des conditions de vol

VIGILANCE MÉTÉO FRANCE - Nièvre (58)
Vigilance Jaune : Pluie-inondation
CARTE TEMSI
CARTES DES FRONTS
METAR de LFQG
LFQG 271800Z AUTO 29009KT 9999 -DZ OVC006 11/10 Q1007

Date d'émission: 27/09/2020
Heure d'émission: 18:00 UTC
Vent: 290° pour 9 KT (17 km/h)
Visibilité horizontale: > 10 km
Plafond :
- Couvert à 600ft (183m)
Température: 11 °C
Point de rosée: 10 °C
Humidité: 94%
Pression (QNH): 1007 hPa
Conditions: Faible Bruine
Prévision 24h pour Nevers
Vent : 244° pour 2 KT (8 km/h)
Temperature Maxi: 10 °C
Temperature Min: 10 °C
Humidité : 94%
Condition : Couvert



Warning: count(): Parameter must be an array or an object that implements Countable in /homepages/6/d509196549/htdocs/droneoxygene/briefing.php on line 743
WEBCAM POUR NEVERS

Réglementation

Voler en sécurité

CARTES AERONAUTIQUE 1/500.000
CARTES VAC (LFQG)
SUP AIP




Chargement des AIP...
NOTAM (NEVERS + Terrain à proximité / FIR )




Chargement des NOTAMS...
CONTACT PREFECTURE 58


Avertissement : Les données mises à disposition sont indicatives. Oxygène Drone ne pourra être tenu responsable de dégâts causés aux biens et aux personnes.